sensor_id;sensor_type;location;lat;lon;timestamp;pressure;altitude;pressure_sealevel;temperature;humidity
3142;BME280;1581;51.568;6.998;2024-02-21T00:00:25;101585.50;;;10.74;100.00
3142;BME280;1581;51.568;6.998;2024-02-21T00:03:06;101585.19;;;10.77;100.00
3142;BME280;1581;51.568;6.998;2024-02-21T00:05:34;101575.50;;;10.76;100.00
3142;BME280;1581;51.568;6.998;2024-02-21T00:08:02;101571.84;;;10.77;100.00
3142;BME280;1581;51.568;6.998;2024-02-21T00:10:31;101572.34;;;10.81;100.00
3142;BME280;1581;51.568;6.998;2024-02-21T00:12:58;101564.88;;;10.68;100.00
3142;BME280;1581;51.568;6.998;2024-02-21T00:15:26;101554.56;;;10.57;100.00
3142;BME280;1581;51.568;6.998;2024-02-21T00:17:53;101564.88;;;10.68;100.00
3142;BME280;1581;51.568;6.998;2024-02-21T00:20:20;101570.38;;;10.75;100.00
3142;BME280;1581;51.568;6.998;2024-02-21T00:22:47;101550.19;;;10.80;100.00
3142;BME280;1581;51.568;6.998;2024-02-21T00:25:14;101547.53;;;10.64;100.00
3142;BME280;1581;51.568;6.998;2024-02-21T00:27:43;101547.22;;;10.67;100.00
3142;BME280;1581;51.568;6.998;2024-02-21T00:30:11;101542.22;;;10.64;100.00
3142;BME280;1581;51.568;6.998;2024-02-21T00:32:39;101539.03;;;10.69;100.00
3142;BME280;1581;51.568;6.998;2024-02-21T00:35:06;101533.56;;;10.70;100.00
3142;BME280;1581;51.568;6.998;2024-02-21T00:37:34;101523.38;;;10.74;100.00
3142;BME280;1581;51.568;6.998;2024-02-21T00:40:01;101528.06;;;10.64;100.00
3142;BME280;1581;51.568;6.998;2024-02-21T00:42:28;101522.03;;;10.70;100.00
3142;BME280;1581;51.568;6.998;2024-02-21T00:44:57;101527.72;;;10.67;100.00
3142;BME280;1581;51.568;6.998;2024-02-21T00:47:25;101510.88;;;10.66;100.00
3142;BME280;1581;51.568;6.998;2024-02-21T00:49:52;101506.88;;;10.78;100.00
3142;BME280;1581;51.568;6.998;2024-02-21T00:52:19;101504.91;;;10.56;100.00
3142;BME280;1581;51.568;6.998;2024-02-21T00:54:46;101501.91;;;10.67;100.00
3142;BME280;1581;51.568;6.998;2024-02-21T00:57:14;101498.25;;;10.60;100.00
3142;BME280;1581;51.568;6.998;2024-02-21T00:59:42;101498.41;;;10.67;100.00
3142;BME280;1581;51.568;6.998;2024-02-21T01:02:10;101502.91;;;10.66;100.00
3142;BME280;1581;51.568;6.998;2024-02-21T01:04:37;101500.94;;;10.60;100.00
3142;BME280;1581;51.568;6.998;2024-02-21T01:07:04;101498.06;;;10.70;100.00
3142;BME280;1581;51.568;6.998;2024-02-21T01:09:31;101488.06;;;10.72;100.00
3142;BME280;1581;51.568;6.998;2024-02-21T01:11:58;101482.16;;;10.84;100.00
3142;BME280;1581;51.568;6.998;2024-02-21T01:14:26;101479.03;;;10.81;100.00
3142;BME280;1581;51.568;6.998;2024-02-21T01:16:53;101480.50;;;10.83;100.00
3142;BME280;1581;51.568;6.998;2024-02-21T01:19:22;101479.19;;;10.79;100.00
3142;BME280;1581;51.568;6.998;2024-02-21T01:21:49;101462.88;;;10.82;100.00
3142;BME280;1581;51.568;6.998;2024-02-21T01:24:16;101456.91;;;10.72;100.00
3142;BME280;1581;51.568;6.998;2024-02-21T01:26:43;101453.72;;;10.69;100.00
3142;BME280;1581;51.568;6.998;2024-02-21T01:29:10;101450.59;;;10.65;100.00
3142;BME280;1581;51.568;6.998;2024-02-21T01:31:37;101450.25;;;10.68;100.00
3142;BME280;1581;51.568;6.998;2024-02-21T01:34:04;101455.75;;;10.59;100.00
3142;BME280;1581;51.568;6.998;2024-02-21T01:36:33;101446.41;;;10.71;100.00
3142;BME280;1581;51.568;6.998;2024-02-21T01:39:00;101438.16;;;10.58;100.00
3142;BME280;1581;51.568;6.998;2024-02-21T01:41:30;101450.91;;;10.70;100.00
3142;BME280;1581;51.568;6.998;2024-02-21T01:43:57;101448.28;;;10.62;100.00
3142;BME280;1581;51.568;6.998;2024-02-21T01:46:24;101443.59;;;10.64;100.00
3142;BME280;1581;51.568;6.998;2024-02-21T01:48:54;101433.00;;;10.48;100.00
3142;BME280;1581;51.568;6.998;2024-02-21T01:51:21;101442.44;;;10.59;100.00
3142;BME280;1581;51.568;6.998;2024-02-21T01:53:51;101441.28;;;10.53;100.00
3142;BME280;1581;51.568;6.998;2024-02-21T01:56:18;101435.47;;;10.58;100.00
3142;BME280;1581;51.568;6.998;2024-02-21T01:58:46;101435.91;;;10.69;100.00
3142;BME280;1581;51.568;6.998;2024-02-21T02:01:15;101430.63;;;10.53;100.00
3142;BME280;1581;51.568;6.998;2024-02-21T02:03:44;101427.78;;;10.63;100.00
3142;BME280;1581;51.568;6.998;2024-02-21T02:06:12;101421.59;;;10.70;100.00
3142;BME280;1581;51.568;6.998;2024-02-21T02:08:39;101423.63;;;10.60;100.00
3142;BME280;1581;51.568;6.998;2024-02-21T02:11:08;101431.25;;;10.71;100.00
3142;BME280;1581;51.568;6.998;2024-02-21T02:13:35;101421.06;;;10.75;100.00
3142;BME280;1581;51.568;6.998;2024-02-21T02:16:02;101416.41;;;10.77;100.00
3142;BME280;1581;51.568;6.998;2024-02-21T02:18:29;101405.34;;;10.88;100.00
3142;BME280;1581;51.568;6.998;2024-02-21T02:20:56;101400.41;;;10.77;100.00
3142;BME280;1581;51.568;6.998;2024-02-21T02:23:26;101393.41;;;10.76;100.00
3142;BME280;1581;51.568;6.998;2024-02-21T02:25:53;101383.28;;;10.71;100.00
3142;BME280;1581;51.568;6.998;2024-02-21T02:28:21;101369.75;;;10.73;100.00
3142;BME280;1581;51.568;6.998;2024-02-21T02:30:48;101363.06;;;10.46;100.00
3142;BME280;1581;51.568;6.998;2024-02-21T02:33:16;101369.66;;;10.58;100.00
3142;BME280;1581;51.568;6.998;2024-02-21T02:35:44;101359.00;;;10.58;100.00
3142;BME280;1581;51.568;6.998;2024-02-21T02:38:11;101358.66;;;10.61;100.00
3142;BME280;1581;51.568;6.998;2024-02-21T02:40:40;101363.94;;;10.69;100.00
3142;BME280;1581;51.568;6.998;2024-02-21T02:43:08;101353.97;;;10.63;100.00
3142;BME280;1581;51.568;6.998;2024-02-21T02:45:35;101347.63;;;10.72;100.00
3142;BME280;1581;51.568;6.998;2024-02-21T02:48:03;101359.31;;;10.63;100.00
3142;BME280;1581;51.568;6.998;2024-02-21T02:50:30;101365.66;;;10.62;100.00
3142;BME280;1581;51.568;6.998;2024-02-21T02:52:57;101353.34;;;10.61;100.00
3142;BME280;1581;51.568;6.998;2024-02-21T02:55:25;101360.50;;;10.61;100.00
3142;BME280;1581;51.568;6.998;2024-02-21T02:57:54;101358.66;;;10.61;100.00
3142;BME280;1581;51.568;6.998;2024-02-21T03:00:21;101368.53;;;10.53;100.00
3142;BME280;1581;51.568;6.998;2024-02-21T03:02:49;101364.09;;;10.37;100.00
3142;BME280;1581;51.568;6.998;2024-02-21T03:05:18;101358.38;;;10.48;100.00
3142;BME280;1581;51.568;6.998;2024-02-21T03:07:46;101355.63;;;10.34;100.00
3142;BME280;1581;51.568;6.998;2024-02-21T03:10:14;101344.75;;;10.43;100.00
3142;BME280;1581;51.568;6.998;2024-02-21T03:12:42;101337.94;;;10.41;100.00
3142;BME280;1581;51.568;6.998;2024-02-21T03:15:11;101337.06;;;10.48;100.00
3142;BME280;1581;51.568;6.998;2024-02-21T03:17:39;101327.78;;;10.36;100.00
3142;BME280;1581;51.568;6.998;2024-02-21T03:20:07;101332.31;;;10.36;100.00
3142;BME280;1581;51.568;6.998;2024-02-21T03:22:36;101332.41;;;10.50;100.00
3142;BME280;1581;51.568;6.998;2024-02-21T03:25:04;101324.78;;;10.39;100.00
3142;BME280;1581;51.568;6.998;2024-02-21T03:27:32;101324.75;;;10.47;100.00
3142;BME280;1581;51.568;6.998;2024-02-21T03:29:59;101318.41;;;10.48;100.00
3142;BME280;1581;51.568;6.998;2024-02-21T03:32:27;101320.47;;;10.38;100.00
3142;BME280;1581;51.568;6.998;2024-02-21T03:34:54;101316.47;;;10.42;100.00
3142;BME280;1581;51.568;6.998;2024-02-21T03:37:22;101312.13;;;10.41;100.00
3142;BME280;1581;51.568;6.998;2024-02-21T03:39:49;101318.78;;;10.37;100.00
3142;BME280;1581;51.568;6.998;2024-02-21T03:42:16;101327.13;;;10.42;100.00
3142;BME280;1581;51.568;6.998;2024-02-21T03:44:43;101331.41;;;10.51;100.00
3142;BME280;1581;51.568;6.998;2024-02-21T03:47:10;101322.47;;;10.36;100.00
3142;BME280;1581;51.568;6.998;2024-02-21T03:49:38;101318.41;;;10.48;100.00
3142;BME280;1581;51.568;6.998;2024-02-21T03:52:06;101332.56;;;10.49;100.00
3142;BME280;1581;51.568;6.998;2024-02-21T03:54:34;101338.72;;;10.49;100.00
3142;BME280;1581;51.568;6.998;2024-02-21T03:57:01;101336.72;;;10.51;100.00
3142;BME280;1581;51.568;6.998;2024-02-21T03:59:28;101337.69;;;10.58;100.00
3142;BME280;1581;51.568;6.998;2024-02-21T04:01:55;101343.72;;;10.52;100.00
3142;BME280;1581;51.568;6.998;2024-02-21T04:04:22;101336.22;;;10.56;100.00
3142;BME280;1581;51.568;6.998;2024-02-21T04:06:51;101337.78;;;10.34;100.00
3142;BME280;1581;51.568;6.998;2024-02-21T04:09:18;101334.13;;;10.35;100.00
3142;BME280;1581;51.568;6.998;2024-02-21T04:11:45;101332.59;;;10.41;100.00
3142;BME280;1581;51.568;6.998;2024-02-21T04:14:12;101328.94;;;10.42;100.00
3142;BME280;1581;51.568;6.998;2024-02-21T04:16:40;101326.75;;;10.45;100.00
3142;BME280;1581;51.568;6.998;2024-02-21T04:19:07;101324.09;;;10.45;100.00
3142;BME280;1581;51.568;6.998;2024-02-21T04:21:34;101316.47;;;10.42;100.00
3142;BME280;1581;51.568;6.998;2024-02-21T04:24:03;101324.75;;;10.47;100.00
3142;BME280;1581;51.568;6.998;2024-02-21T04:26:31;101320.91;;;10.50;100.00
3142;BME280;1581;51.568;6.998;2024-02-21T04:28:58;101315.41;;;10.51;100.00
3142;BME280;1581;51.568;6.998;2024-02-21T04:31:25;101314.41;;;10.52;100.00
3142;BME280;1581;51.568;6.998;2024-02-21T04:33:52;101315.72;;;10.56;100.00
3142;BME280;1581;51.568;6.998;2024-02-21T04:36:19;101317.41;;;10.49;100.00
3142;BME280;1581;51.568;6.998;2024-02-21T04:38:46;101309.75;;;10.46;100.00
3142;BME280;1581;51.568;6.998;2024-02-21T04:41:16;101303.75;;;10.52;100.00
3142;BME280;1581;51.568;6.998;2024-02-21T04:43:43;101297.16;;;10.40;100.00
3142;BME280;1581;51.568;6.998;2024-02-21T04:46:10;101296.44;;;10.46;100.00
3142;BME280;1581;51.568;6.998;2024-02-21T04:48:37;101303.81;;;10.36;100.00
3142;BME280;1581;51.568;6.998;2024-02-21T04:51:04;101300.94;;;10.46;100.00
3142;BME280;1581;51.568;6.998;2024-02-21T04:53:31;101298.81;;;10.33;100.00
3142;BME280;1581;51.568;6.998;2024-02-21T04:55:59;101300.81;;;10.39;100.00
3142;BME280;1581;51.568;6.998;2024-02-21T04:58:28;101295.34;;;10.33;100.00
3142;BME280;1581;51.568;6.998;2024-02-21T05:00:55;101285.50;;;10.33;100.00
3142;BME280;1581;51.568;6.998;2024-02-21T05:03:22;101292.50;;;10.34;100.00
3142;BME280;1581;51.568;6.998;2024-02-21T05:05:49;101297.28;;;10.47;100.00
3142;BME280;1581;51.568;6.998;2024-02-21T05:08:16;101289.63;;;10.44;100.00
3142;BME280;1581;51.568;6.998;2024-02-21T05:10:46;101293.44;;;10.49;100.00
3142;BME280;1581;51.568;6.998;2024-02-21T05:13:14;101287.44;;;10.47;100.00
3142;BME280;1581;51.568;6.998;2024-02-21T05:15:42;101290.16;;;10.39;100.00
3142;BME280;1581;51.568;6.998;2024-02-21T05:18:09;101277.78;;;10.46;100.00
3142;BME280;1581;51.568;6.998;2024-02-21T05:20:37;101272.66;;;10.45;100.00
3142;BME280;1581;51.568;6.998;2024-02-21T05:23:04;101283.16;;;10.38;100.00
3142;BME280;1581;51.568;6.998;2024-02-21T05:25:31;101282.97;;;10.48;100.00
3142;BME280;1581;51.568;6.998;2024-02-21T05:27:58;101289.06;;;10.56;100.00
3142;BME280;1581;51.568;6.998;2024-02-21T05:30:28;101284.50;;;10.42;100.00
3142;BME280;1581;51.568;6.998;2024-02-21T05:33:04;101269.25;;;10.51;100.00
3142;BME280;1581;51.568;6.998;2024-02-21T05:35:35;101258.59;;;10.51;100.00
3142;BME280;1581;51.568;6.998;2024-02-21T05:38:03;101264.31;;;10.48;100.00
3142;BME280;1581;51.568;6.998;2024-02-21T05:40:32;101259.47;;;10.51;100.00
3142;BME280;1581;51.568;6.998;2024-02-21T05:42:59;101246.53;;;10.40;100.00
3142;BME280;1581;51.568;6.998;2024-02-21T05:45:26;101246.66;;;10.47;100.00
3142;BME280;1581;51.568;6.998;2024-02-21T05:47:55;101260.09;;;10.53;100.00
3142;BME280;1581;51.568;6.998;2024-02-21T05:50:23;101257.41;;;10.53;100.00
3142;BME280;1581;51.568;6.998;2024-02-21T05:52:51;101258.53;;;10.67;100.00
3142;BME280;1581;51.568;6.998;2024-02-21T05:55:19;101249.56;;;10.60;100.00
3142;BME280;1581;51.568;6.998;2024-02-21T05:57:46;101244.22;;;10.60;100.00
3142;BME280;1581;51.568;6.998;2024-02-21T06:00:14;101242.47;;;10.52;100.00
3142;BME280;1581;51.568;6.998;2024-02-21T06:02:42;101236.53;;;10.42;100.00
3142;BME280;1581;51.568;6.998;2024-02-21T06:05:10;101231.59;;;10.31;100.00
3142;BME280;1581;51.568;6.998;2024-02-21T06:07:38;101227.03;;;10.40;100.00
3142;BME280;1581;51.568;6.998;2024-02-21T06:10:07;101223.63;;;10.54;100.00
3142;BME280;1581;51.568;6.998;2024-02-21T06:12:34;101228.47;;;10.50;100.00
3142;BME280;1581;51.568;6.998;2024-02-21T06:15:02;101221.97;;;10.53;100.00
3142;BME280;1581;51.568;6.998;2024-02-21T06:17:29;101220.84;;;10.47;100.00
3142;BME280;1581;51.568;6.998;2024-02-21T06:19:56;101206.19;;;10.43;100.00
3142;BME280;1581;51.568;6.998;2024-02-21T06:22:25;101204.84;;;10.47;100.00
3142;BME280;1581;51.568;6.998;2024-02-21T06:24:52;101197.84;;;10.46;100.00
3142;BME280;1581;51.568;6.998;2024-02-21T06:27:20;101197.69;;;10.48;100.00
3142;BME280;1581;51.568;6.998;2024-02-21T06:29:47;101198.56;;;10.40;100.00
3142;BME280;1581;51.568;6.998;2024-02-21T06:32:14;101193.66;;;10.52;100.00
3142;BME280;1581;51.568;6.998;2024-02-21T06:34:41;101191.94;;;10.59;100.00
3142;BME280;1581;51.568;6.998;2024-02-21T06:37:08;101183.34;;;10.49;100.00
3142;BME280;1581;51.568;6.998;2024-02-21T06:39:38;101188.31;;;10.52;100.00
3142;BME280;1581;51.568;6.998;2024-02-21T06:42:06;101191.06;;;10.44;100.00
3142;BME280;1581;51.568;6.998;2024-02-21T06:44:33;101184.06;;;10.43;100.00
3142;BME280;1581;51.568;6.998;2024-02-21T06:47:06;101179.53;;;10.43;100.00
3142;BME280;1581;51.568;6.998;2024-02-21T06:49:34;101177.59;;;10.37;100.00
3142;BME280;1581;51.568;6.998;2024-02-21T06:52:04;101183.06;;;10.44;100.00
3142;BME280;1581;51.568;6.998;2024-02-21T06:54:31;101178.38;;;10.46;100.00
3142;BME280;1581;51.568;6.998;2024-02-21T06:56:59;101176.13;;;10.57;100.00
3142;BME280;1581;51.568;6.998;2024-02-21T06:59:26;101180.25;;;10.60;100.00
3142;BME280;1581;51.568;6.998;2024-02-21T07:01:54;101178.31;;;10.54;100.00
3142;BME280;1581;51.568;6.998;2024-02-21T07:04:22;101177.97;;;10.57;100.00
3142;BME280;1581;51.568;6.998;2024-02-21T07:06:49;101184.72;;;10.67;100.00
3142;BME280;1581;51.568;6.998;2024-02-21T07:09:16;101189.63;;;10.56;100.00
3142;BME280;1581;51.568;6.998;2024-02-21T07:11:44;101189.88;;;10.46;100.00
3142;BME280;1581;51.568;6.998;2024-02-21T07:14:14;101188.44;;;10.58;100.00
3142;BME280;1581;51.568;6.998;2024-02-21T07:16:41;101180.84;;;10.70;100.00
3142;BME280;1581;51.568;6.998;2024-02-21T07:19:09;101177.91;;;10.65;100.00
3142;BME280;1581;51.568;6.998;2024-02-21T07:21:36;101171.66;;;10.58;100.00
3142;BME280;1581;51.568;6.998;2024-02-21T07:24:04;101177.13;;;10.56;100.00
3142;BME280;1581;51.568;6.998;2024-02-21T07:26:31;101169.59;;;10.60;100.00
3142;BME280;1581;51.568;6.998;2024-02-21T07:28:58;101166.84;;;10.76;100.00
3142;BME280;1581;51.568;6.998;2024-02-21T07:31:27;101166.72;;;10.69;100.00
3142;BME280;1581;51.568;6.998;2024-02-21T07:33:54;101169.72;;;10.66;100.00
3142;BME280;1581;51.568;6.998;2024-02-21T07:36:28;101169.50;;;10.76;100.00
3142;BME280;1581;51.568;6.998;2024-02-21T07:38:55;101168.06;;;10.88;100.00
3142;BME280;1581;51.568;6.998;2024-02-21T07:41:22;101164.63;;;10.79;100.00
3142;BME280;1581;51.568;6.998;2024-02-21T07:43:50;101171.25;;;10.83;100.00
3142;BME280;1581;51.568;6.998;2024-02-21T07:46:17;101172.31;;;10.74;100.00
3142;BME280;1581;51.568;6.998;2024-02-21T07:48:46;101167.22;;;10.87;100.00
3142;BME280;1581;51.568;6.998;2024-02-21T07:51:13;101172.81;;;10.78;100.00
3142;BME280;1581;51.568;6.998;2024-02-21T07:53:42;101162.25;;;10.62;100.00
3142;BME280;1581;51.568;6.998;2024-02-21T07:56:10;101149.41;;;10.65;100.00
3142;BME280;1581;51.568;6.998;2024-02-21T07:58:37;101148.47;;;10.58;100.00
3142;BME280;1581;51.568;6.998;2024-02-21T08:01:05;101134.06;;;10.67;100.00
3142;BME280;1581;51.568;6.998;2024-02-21T08:03:32;101137.06;;;10.87;100.00
3142;BME280;1581;51.568;6.998;2024-02-21T08:06:02;101131.09;;;10.85;100.00
3142;BME280;1581;51.568;6.998;2024-02-21T08:08:34;101134.09;;;10.82;100.00
3142;BME280;1581;51.568;6.998;2024-02-21T08:11:02;101129.63;;;10.82;100.00
3142;BME280;1581;51.568;6.998;2024-02-21T08:13:33;101117.56;;;10.86;100.00
3142;BME280;1581;51.568;6.998;2024-02-21T08:16:08;101115.81;;;10.93;100.00
3142;BME280;1581;51.568;6.998;2024-02-21T08:18:36;101115.38;;;11.04;100.00
3142;BME280;1581;51.568;6.998;2024-02-21T08:21:11;101113.00;;;11.09;100.00
3142;BME280;1581;51.568;6.998;2024-02-21T08:23:40;101105.94;;;11.16;100.00
3142;BME280;1581;51.568;6.998;2024-02-21T08:26:07;101102.81;;;11.13;100.00
3142;BME280;1581;51.568;6.998;2024-02-21T08:28:34;101090.56;;;11.04;100.00
3142;BME280;1581;51.568;6.998;2024-02-21T08:31:01;101084.78;;;11.14;100.00
3142;BME280;1581;51.568;6.998;2024-02-21T08:33:28;101093.13;;;11.12;100.00
3142;BME280;1581;51.568;6.998;2024-02-21T08:35:55;101088.72;;;11.04;100.00
3142;BME280;1581;51.568;6.998;2024-02-21T08:38:24;101088.16;;;11.09;100.00
3142;BME280;1581;51.568;6.998;2024-02-21T08:40:51;101087.72;;;11.05;100.00
3142;BME280;1581;51.568;6.998;2024-02-21T08:43:18;101083.47;;;10.96;100.00
3142;BME280;1581;51.568;6.998;2024-02-21T08:45:45;101081.00;;;11.09;100.00
3142;BME280;1581;51.568;6.998;2024-02-21T08:48:12;101082.47;;;11.12;100.00
3142;BME280;1581;51.568;6.998;2024-02-21T08:50:39;101089.81;;;11.24;100.00
3142;BME280;1581;51.568;6.998;2024-02-21T08:53:07;101083.69;;;11.23;100.00
3142;BME280;1581;51.568;6.998;2024-02-21T08:55:36;101089.56;;;11.19;100.00
3142;BME280;1581;51.568;6.998;2024-02-21T08:58:03;101093.50;;;10.94;100.00
3142;BME280;1581;51.568;6.998;2024-02-21T09:00:30;101080.81;;;10.96;100.00
3142;BME280;1581;51.568;6.998;2024-02-21T09:02:57;101078.53;;;11.08;100.00
3142;BME280;1581;51.568;6.998;2024-02-21T09:05:25;101072.91;;;11.17;100.00
3142;BME280;1581;51.568;6.998;2024-02-21T09:07:52;101068.22;;;11.19;100.00
3142;BME280;1581;51.568;6.998;2024-02-21T09:10:19;101065.72;;;11.03;100.00
3142;BME280;1581;51.568;6.998;2024-02-21T09:12:48;101062.22;;;10.88;100.00
3142;BME280;1581;51.568;6.998;2024-02-21T09:15:15;101068.47;;;10.81;100.00
3142;BME280;1581;51.568;6.998;2024-02-21T09:17:42;101059.56;;;10.74;100.00
3142;BME280;1581;51.568;6.998;2024-02-21T09:20:10;101054.59;;;11.00;100.00
3142;BME280;1581;51.568;6.998;2024-02-21T09:22:38;101052.78;;;10.86;100.00
3142;BME280;1581;51.568;6.998;2024-02-21T09:25:07;101049.34;;;10.92;100.00
3142;BME280;1581;51.568;6.998;2024-02-21T09:27:35;101054.25;;;11.03;100.00
3142;BME280;1581;51.568;6.998;2024-02-21T09:30:06;101039.25;;;11.16;100.00
3142;BME280;1581;51.568;6.998;2024-02-21T09:32:33;101047.81;;;11.12;100.00
3142;BME280;1581;51.568;6.998;2024-02-21T09:35:00;101043.38;;;11.04;100.00
3142;BME280;1581;51.568;6.998;2024-02-21T09:37:27;101034.00;;;11.22;100.00
3142;BME280;1581;51.568;6.998;2024-02-21T09:39:54;101039.69;;;11.19;100.00
3142;BME280;1581;51.568;6.998;2024-02-21T09:42:21;101020.69;;;11.08;100.00
3142;BME280;1581;51.568;6.998;2024-02-21T09:44:49;101029.28;;;11.39;100.00
3142;BME280;1581;51.568;6.998;2024-02-21T09:47:24;101030.97;;;11.11;100.00
3142;BME280;1581;51.568;6.998;2024-02-21T09:49:54;101030.97;;;11.25;100.00
3142;BME280;1581;51.568;6.998;2024-02-21T09:52:23;101036.44;;;11.38;100.00
3142;BME280;1581;51.568;6.998;2024-02-21T09:54:51;101030.09;;;11.54;100.00
3142;BME280;1581;51.568;6.998;2024-02-21T09:57:19;101043.81;;;11.51;100.00
3142;BME280;1581;51.568;6.998;2024-02-21T09:59:46;101033.91;;;11.16;100.00
3142;BME280;1581;51.568;6.998;2024-02-21T10:02:15;101061.88;;;11.20;100.00
3142;BME280;1581;51.568;6.998;2024-02-21T10:04:44;101033.53;;;11.19;100.00
3142;BME280;1581;51.568;6.998;2024-02-21T10:07:11;101028.78;;;11.00;100.00
3142;BME280;1581;51.568;6.998;2024-02-21T10:09:39;101028.22;;;11.19;100.00
3142;BME280;1581;51.568;6.998;2024-02-21T10:12:09;101025.19;;;11.22;100.00
3142;BME280;1581;51.568;6.998;2024-02-21T10:14:36;101027.47;;;11.25;100.00
3142;BME280;1581;51.568;6.998;2024-02-21T10:17:04;101016.34;;;11.21;100.00
3142;BME280;1581;51.568;6.998;2024-02-21T10:19:35;101026.72;;;11.31;100.00
3142;BME280;1581;51.568;6.998;2024-02-21T10:22:05;101004.66;;;11.22;100.00
3142;BME280;1581;51.568;6.998;2024-02-21T10:24:33;101014.63;;;11.49;100.00
3142;BME280;1581;51.568;6.998;2024-02-21T10:27:03;101012.63;;;11.37;100.00
3142;BME280;1581;51.568;6.998;2024-02-21T10:29:31;101007.84;;;11.32;100.00
3142;BME280;1581;51.568;6.998;2024-02-21T10:32:06;101007.09;;;11.38;100.00
3142;BME280;1581;51.568;6.998;2024-02-21T10:34:34;101000.03;;;11.45;100.00
3142;BME280;1581;51.568;6.998;2024-02-21T10:37:03;100990.59;;;11.49;100.00
3142;BME280;1581;51.568;6.998;2024-02-21T10:39:32;100994.47;;;11.47;100.00
3142;BME280;1581;51.568;6.998;2024-02-21T10:42:01;100995.09;;;11.28;100.00
3142;BME280;1581;51.568;6.998;2024-02-21T10:44:31;100986.19;;;11.21;100.00
3142;BME280;1581;51.568;6.998;2024-02-21T10:46:59;100980.72;;;11.29;100.00
3142;BME280;1581;51.568;6.998;2024-02-21T10:49:26;100975.28;;;11.37;100.00
3142;BME280;1581;51.568;6.998;2024-02-21T10:52:00;100965.63;;;11.36;100.00
3142;BME280;1581;51.568;6.998;2024-02-21T10:54:44;100953.38;;;11.41;100.00
3142;BME280;1581;51.568;6.998;2024-02-21T10:57:13;100952.84;;;11.31;100.00
3142;BME280;1581;51.568;6.998;2024-02-21T10:59:41;100939.00;;;11.57;100.00
3142;BME280;1581;51.568;6.998;2024-02-21T11:02:09;100929.78;;;11.59;100.00
3142;BME280;1581;51.568;6.998;2024-02-21T11:04:37;100923.69;;;11.65;100.00
3142;BME280;1581;51.568;6.998;2024-02-21T11:07:06;100909.91;;;11.83;100.00
3142;BME280;1581;51.568;6.998;2024-02-21T11:09:34;100904.09;;;11.79;100.00
3142;BME280;1581;51.568;6.998;2024-02-21T11:12:05;100886.09;;;11.88;100.00
3142;BME280;1581;51.568;6.998;2024-02-21T11:14:34;100887.38;;;11.92;100.00
3142;BME280;1581;51.568;6.998;2024-02-21T11:17:03;100875.09;;;12.03;100.00
3142;BME280;1581;51.568;6.998;2024-02-21T11:19:41;100868.56;;;12.06;100.00
3142;BME280;1581;51.568;6.998;2024-02-21T11:22:15;100864.03;;;12.06;100.00
3142;BME280;1581;51.568;6.998;2024-02-21T11:24:43;100853.16;;;12.08;100.00
3142;BME280;1581;51.568;6.998;2024-02-21T11:27:19;100837.13;;;12.08;100.00
3142;BME280;1581;51.568;6.998;2024-02-21T11:29:48;100831.13;;;12.33;100.00
3142;BME280;1581;51.568;6.998;2024-02-21T11:32:18;100820.13;;;12.49;100.00
3142;BME280;1581;51.568;6.998;2024-02-21T11:34:56;100810.78;;;12.32;100.00
3142;BME280;1581;51.568;6.998;2024-02-21T11:37:28;100808.34;;;12.37;100.00
3142;BME280;1581;51.568;6.998;2024-02-21T11:39:55;100790.94;;;12.54;100.00
3142;BME280;1581;51.568;6.998;2024-02-21T11:42:25;100804.13;;;12.62;100.00
3142;BME280;1581;51.568;6.998;2024-02-21T11:44:53;100794.13;;;12.30;99.96
3142;BME280;1581;51.568;6.998;2024-02-21T11:47:23;100790.91;;;12.41;100.00
3142;BME280;1581;51.568;6.998;2024-02-21T11:49:50;100775.91;;;12.47;100.00
3142;BME280;1581;51.568;6.998;2024-02-21T11:52:22;100773.06;;;12.68;100.00
3142;BME280;1581;51.568;6.998;2024-02-21T11:54:51;100757.03;;;12.61;99.34
3142;BME280;1581;51.568;6.998;2024-02-21T11:57:20;100743.03;;;12.53;99.17
3142;BME280;1581;51.568;6.998;2024-02-21T11:59:52;100732.56;;;12.71;99.09
3142;BME280;1581;51.568;6.998;2024-02-21T12:02:20;100735.28;;;12.84;97.54
3142;BME280;1581;51.568;6.998;2024-02-21T12:04:47;100733.28;;;12.92;98.03
3142;BME280;1581;51.568;6.998;2024-02-21T12:07:15;100719.63;;;12.81;98.08
3142;BME280;1581;51.568;6.998;2024-02-21T12:09:43;100715.78;;;12.89;97.30
3142;BME280;1581;51.568;6.998;2024-02-21T12:14:41;100707.38;;;12.99;96.52
3142;BME280;1581;51.568;6.998;2024-02-21T12:17:10;100691.94;;;13.01;95.89
3142;BME280;1581;51.568;6.998;2024-02-21T12:19:37;100688.22;;;12.89;95.58
3142;BME280;1581;51.568;6.998;2024-02-21T12:22:04;100691.72;;;12.96;96.45
3142;BME280;1581;51.568;6.998;2024-02-21T12:24:34;100690.06;;;12.95;95.69
3142;BME280;1581;51.568;6.998;2024-02-21T12:27:01;100677.28;;;12.78;95.36
3142;BME280;1581;51.568;6.998;2024-02-21T12:29:29;100668.25;;;12.91;95.10
3142;BME280;1581;51.568;6.998;2024-02-21T12:31:56;100658.75;;;12.70;94.20
3142;BME280;1581;51.568;6.998;2024-02-21T12:34:25;100656.28;;;12.68;93.30
3142;BME280;1581;51.568;6.998;2024-02-21T12:36:53;100648.50;;;12.92;93.50
3142;BME280;1581;51.568;6.998;2024-02-21T12:39:20;100646.47;;;13.01;93.28
3142;BME280;1581;51.568;6.998;2024-02-21T12:41:47;100625.06;;;13.07;92.83
3142;BME280;1581;51.568;6.998;2024-02-21T12:44:14;100640.69;;;13.17;92.70
3142;BME280;1581;51.568;6.998;2024-02-21T12:46:42;100639.03;;;13.29;92.02
3142;BME280;1581;51.568;6.998;2024-02-21T12:49:10;100636.75;;;13.26;92.02
3142;BME280;1581;51.568;6.998;2024-02-21T12:51:38;100635.72;;;13.20;91.09
3142;BME280;1581;51.568;6.998;2024-02-21T12:54:07;100624.41;;;13.25;92.00
3142;BME280;1581;51.568;6.998;2024-02-21T12:56:36;100638.81;;;13.24;90.75
3142;BME280;1581;51.568;6.998;2024-02-21T12:59:03;100626.28;;;13.18;89.59
3142;BME280;1581;51.568;6.998;2024-02-21T13:01:32;100613.84;;;13.43;89.42
3142;BME280;1581;51.568;6.998;2024-02-21T13:04:00;100601.50;;;13.48;88.29
3142;BME280;1581;51.568;6.998;2024-02-21T13:06:27;100600.38;;;13.05;85.25
3142;BME280;1581;51.568;6.998;2024-02-21T13:08:56;100598.31;;;12.94;87.89